sensor_id;sensor_type;location;lat;lon;timestamp;P1;durP1;ratioP1;P2;durP2;ratioP2
34142;SDS011;20419;10.658;106.724;2023-05-07T00:00:20;9.57;;;4.22;;
34142;SDS011;20419;10.658;106.724;2023-05-07T00:02:47;8.25;;;4.47;;
34142;SDS011;20419;10.658;106.724;2023-05-07T00:05:14;5.22;;;3.65;;
34142;SDS011;20419;10.658;106.724;2023-05-07T00:07:40;5.32;;;4.05;;
34142;SDS011;20419;10.658;106.724;2023-05-07T00:10:07;7.18;;;4.15;;
34142;SDS011;20419;10.658;106.724;2023-05-07T00:12:35;5.13;;;3.80;;
34142;SDS011;20419;10.658;106.724;2023-05-07T00:15:02;6.50;;;4.20;;
34142;SDS011;20419;10.658;106.724;2023-05-07T00:17:29;6.43;;;3.50;;
34142;SDS011;20419;10.658;106.724;2023-05-07T00:19:56;6.80;;;3.70;;
34142;SDS011;20419;10.658;106.724;2023-05-07T00:22:23;6.05;;;4.15;;
34142;SDS011;20419;10.658;106.724;2023-05-07T00:24:49;6.50;;;4.05;;
34142;SDS011;20419;10.658;106.724;2023-05-07T00:27:16;5.60;;;4.10;;
34142;SDS011;20419;10.658;106.724;2023-05-07T00:29:43;6.30;;;4.22;;
34142;SDS011;20419;10.658;106.724;2023-05-07T00:32:10;6.30;;;4.05;;
34142;SDS011;20419;10.658;106.724;2023-05-07T00:34:37;5.88;;;3.90;;
34142;SDS011;20419;10.658;106.724;2023-05-07T00:37:05;8.30;;;5.17;;
34142;SDS011;20419;10.658;106.724;2023-05-07T00:39:35;4.95;;;3.70;;
34142;SDS011;20419;10.658;106.724;2023-05-07T00:42:01;6.95;;;3.75;;
34142;SDS011;20419;10.658;106.724;2023-05-07T00:44:28;5.07;;;3.40;;
34142;SDS011;20419;10.658;106.724;2023-05-07T00:46:57;6.50;;;4.35;;
34142;SDS011;20419;10.658;106.724;2023-05-07T00:49:25;6.00;;;3.67;;
34142;SDS011;20419;10.658;106.724;2023-05-07T00:51:57;7.20;;;4.30;;
34142;SDS011;20419;10.658;106.724;2023-05-07T00:54:26;5.75;;;4.00;;
34142;SDS011;20419;10.658;106.724;2023-05-07T00:56:53;5.25;;;4.00;;
34142;SDS011;20419;10.658;106.724;2023-05-07T00:59:20;6.45;;;3.72;;
34142;SDS011;20419;10.658;106.724;2023-05-07T01:01:47;6.55;;;4.10;;
34142;SDS011;20419;10.658;106.724;2023-05-07T01:04:13;5.07;;;3.75;;
34142;SDS011;20419;10.658;106.724;2023-05-07T01:06:40;5.32;;;3.92;;
34142;SDS011;20419;10.658;106.724;2023-05-07T01:09:07;5.82;;;4.22;;
34142;SDS011;20419;10.658;106.724;2023-05-07T01:11:34;6.88;;;3.95;;
34142;SDS011;20419;10.658;106.724;2023-05-07T01:14:01;6.30;;;4.40;;
34142;SDS011;20419;10.658;106.724;2023-05-07T01:16:28;6.28;;;3.80;;
34142;SDS011;20419;10.658;106.724;2023-05-07T01:18:55;5.43;;;3.65;;
34142;SDS011;20419;10.658;106.724;2023-05-07T01:21:24;7.32;;;4.57;;
34142;SDS011;20419;10.658;106.724;2023-05-07T01:23:52;6.72;;;3.65;;
34142;SDS011;20419;10.658;106.724;2023-05-07T01:26:28;5.72;;;4.22;;
34142;SDS011;20419;10.658;106.724;2023-05-07T01:29:13;5.25;;;3.90;;
34142;SDS011;20419;10.658;106.724;2023-05-07T01:31:40;6.30;;;4.53;;
34142;SDS011;20419;10.658;106.724;2023-05-07T01:34:08;5.07;;;4.05;;
34142;SDS011;20419;10.658;106.724;2023-05-07T01:36:37;7.18;;;4.15;;
34142;SDS011;20419;10.658;106.724;2023-05-07T01:39:05;6.13;;;4.50;;
34142;SDS011;20419;10.658;106.724;2023-05-07T01:41:33;6.35;;;3.70;;
34142;SDS011;20419;10.658;106.724;2023-05-07T01:44:00;5.22;;;3.55;;
34142;SDS011;20419;10.658;106.724;2023-05-07T01:46:27;6.20;;;3.65;;
34142;SDS011;20419;10.658;106.724;2023-05-07T01:48:55;5.55;;;3.42;;
34142;SDS011;20419;10.658;106.724;2023-05-07T01:51:22;6.00;;;3.85;;
34142;SDS011;20419;10.658;106.724;2023-05-07T01:53:49;7.43;;;3.80;;
34142;SDS011;20419;10.658;106.724;2023-05-07T01:56:17;5.32;;;3.80;;
34142;SDS011;20419;10.658;106.724;2023-05-07T01:58:44;4.90;;;3.35;;
34142;SDS011;20419;10.658;106.724;2023-05-07T02:01:14;5.45;;;3.50;;
34142;SDS011;20419;10.658;106.724;2023-05-07T02:03:40;5.72;;;4.05;;
34142;SDS011;20419;10.658;106.724;2023-05-07T02:06:07;4.22;;;3.40;;
34142;SDS011;20419;10.658;106.724;2023-05-07T02:08:34;5.00;;;3.70;;
34142;SDS011;20419;10.658;106.724;2023-05-07T02:11:01;5.10;;;3.70;;
34142;SDS011;20419;10.658;106.724;2023-05-07T02:13:29;5.17;;;3.53;;
34142;SDS011;20419;10.658;106.724;2023-05-07T02:15:57;4.65;;;3.47;;
34142;SDS011;20419;10.658;106.724;2023-05-07T02:18:23;6.00;;;3.65;;
34142;SDS011;20419;10.658;106.724;2023-05-07T02:20:50;4.80;;;3.42;;
34142;SDS011;20419;10.658;106.724;2023-05-07T02:23:17;5.35;;;3.47;;
34142;SDS011;20419;10.658;106.724;2023-05-07T02:25:44;5.57;;;3.50;;
34142;SDS011;20419;10.658;106.724;2023-05-07T02:28:11;5.35;;;3.90;;
34142;SDS011;20419;10.658;106.724;2023-05-07T02:30:38;6.95;;;4.35;;
34142;SDS011;20419;10.658;106.724;2023-05-07T02:33:05;5.55;;;3.88;;
34142;SDS011;20419;10.658;106.724;2023-05-07T02:35:33;6.80;;;4.10;;
34142;SDS011;20419;10.658;106.724;2023-05-07T02:38:00;6.20;;;4.18;;
34142;SDS011;20419;10.658;106.724;2023-05-07T02:40:27;5.63;;;3.88;;
34142;SDS011;20419;10.658;106.724;2023-05-07T02:42:54;6.28;;;3.80;;
34142;SDS011;20419;10.658;106.724;2023-05-07T02:45:21;6.10;;;3.58;;
34142;SDS011;20419;10.658;106.724;2023-05-07T02:47:48;5.45;;;3.63;;
34142;SDS011;20419;10.658;106.724;2023-05-07T02:50:15;4.55;;;3.40;;
34142;SDS011;20419;10.658;106.724;2023-05-07T02:52:42;6.10;;;4.13;;
34142;SDS011;20419;10.658;106.724;2023-05-07T02:55:09;5.07;;;3.67;;
34142;SDS011;20419;10.658;106.724;2023-05-07T02:57:36;4.78;;;3.53;;
34142;SDS011;20419;10.658;106.724;2023-05-07T03:00:16;5.78;;;3.67;;
34142;SDS011;20419;10.658;106.724;2023-05-07T03:02:43;4.55;;;3.45;;
34142;SDS011;20419;10.658;106.724;2023-05-07T03:05:10;5.20;;;3.63;;
34142;SDS011;20419;10.658;106.724;2023-05-07T03:07:37;6.03;;;3.58;;
34142;SDS011;20419;10.658;106.724;2023-05-07T03:10:04;5.00;;;3.30;;
34142;SDS011;20419;10.658;106.724;2023-05-07T03:12:31;5.10;;;3.60;;
34142;SDS011;20419;10.658;106.724;2023-05-07T03:14:58;5.43;;;3.58;;
34142;SDS011;20419;10.658;106.724;2023-05-07T03:17:25;4.70;;;3.40;;
34142;SDS011;20419;10.658;106.724;2023-05-07T03:19:52;4.68;;;3.17;;
34142;SDS011;20419;10.658;106.724;2023-05-07T03:22:19;5.15;;;3.60;;
34142;SDS011;20419;10.658;106.724;2023-05-07T03:24:45;7.68;;;3.67;;
34142;SDS011;20419;10.658;106.724;2023-05-07T03:27:12;5.32;;;3.70;;
34142;SDS011;20419;10.658;106.724;2023-05-07T03:29:39;5.25;;;3.20;;
34142;SDS011;20419;10.658;106.724;2023-05-07T03:32:06;5.22;;;3.67;;
34142;SDS011;20419;10.658;106.724;2023-05-07T03:34:33;4.88;;;3.22;;
34142;SDS011;20419;10.658;106.724;2023-05-07T03:37:00;5.40;;;3.88;;
34142;SDS011;20419;10.658;106.724;2023-05-07T03:39:27;4.13;;;3.00;;
34142;SDS011;20419;10.658;106.724;2023-05-07T03:41:53;4.78;;;3.33;;
34142;SDS011;20419;10.658;106.724;2023-05-07T03:44:20;4.18;;;3.10;;
34142;SDS011;20419;10.658;106.724;2023-05-07T03:46:47;4.40;;;3.05;;
34142;SDS011;20419;10.658;106.724;2023-05-07T03:49:14;5.03;;;3.22;;
34142;SDS011;20419;10.658;106.724;2023-05-07T03:51:40;5.05;;;3.33;;
34142;SDS011;20419;10.658;106.724;2023-05-07T03:54:07;4.20;;;2.80;;
34142;SDS011;20419;10.658;106.724;2023-05-07T03:56:34;4.70;;;3.33;;
34142;SDS011;20419;10.658;106.724;2023-05-07T03:59:01;5.68;;;3.25;;
34142;SDS011;20419;10.658;106.724;2023-05-07T04:01:28;4.68;;;3.10;;
34142;SDS011;20419;10.658;106.724;2023-05-07T04:03:55;4.95;;;3.20;;
34142;SDS011;20419;10.658;106.724;2023-05-07T04:06:21;4.45;;;2.95;;
34142;SDS011;20419;10.658;106.724;2023-05-07T04:08:48;5.35;;;3.42;;
34142;SDS011;20419;10.658;106.724;2023-05-07T04:11:15;6.78;;;3.50;;
34142;SDS011;20419;10.658;106.724;2023-05-07T04:13:42;5.07;;;3.20;;
34142;SDS011;20419;10.658;106.724;2023-05-07T04:16:09;4.40;;;2.97;;
34142;SDS011;20419;10.658;106.724;2023-05-07T04:18:36;4.53;;;3.28;;
34142;SDS011;20419;10.658;106.724;2023-05-07T04:21:03;4.40;;;3.28;;
34142;SDS011;20419;10.658;106.724;2023-05-07T04:23:30;4.93;;;3.30;;
34142;SDS011;20419;10.658;106.724;2023-05-07T04:25:56;4.82;;;3.10;;
34142;SDS011;20419;10.658;106.724;2023-05-07T04:28:23;4.70;;;3.38;;
34142;SDS011;20419;10.658;106.724;2023-05-07T04:30:51;4.57;;;3.25;;
34142;SDS011;20419;10.658;106.724;2023-05-07T04:33:18;4.10;;;2.88;;
34142;SDS011;20419;10.658;106.724;2023-05-07T04:35:45;4.10;;;2.75;;
34142;SDS011;20419;10.658;106.724;2023-05-07T04:38:12;4.35;;;3.00;;
34142;SDS011;20419;10.658;106.724;2023-05-07T04:40:38;4.65;;;3.10;;
34142;SDS011;20419;10.658;106.724;2023-05-07T04:43:06;4.25;;;2.90;;
34142;SDS011;20419;10.658;106.724;2023-05-07T04:45:35;4.60;;;3.20;;
34142;SDS011;20419;10.658;106.724;2023-05-07T04:48:02;3.92;;;2.67;;
34142;SDS011;20419;10.658;106.724;2023-05-07T04:50:29;4.75;;;3.17;;
34142;SDS011;20419;10.658;106.724;2023-05-07T04:52:55;5.40;;;3.35;;
34142;SDS011;20419;10.658;106.724;2023-05-07T04:55:22;5.38;;;3.40;;
34142;SDS011;20419;10.658;106.724;2023-05-07T04:57:49;5.13;;;3.75;;
34142;SDS011;20419;10.658;106.724;2023-05-07T05:00:16;4.95;;;3.13;;
34142;SDS011;20419;10.658;106.724;2023-05-07T05:02:45;6.00;;;3.70;;
34142;SDS011;20419;10.658;106.724;2023-05-07T05:05:12;4.68;;;3.05;;
34142;SDS011;20419;10.658;106.724;2023-05-07T05:07:38;4.05;;;2.88;;
34142;SDS011;20419;10.658;106.724;2023-05-07T05:10:05;3.70;;;2.83;;
34142;SDS011;20419;10.658;106.724;2023-05-07T05:12:32;4.55;;;3.40;;
34142;SDS011;20419;10.658;106.724;2023-05-07T05:14:59;4.45;;;3.15;;
34142;SDS011;20419;10.658;106.724;2023-05-07T05:17:26;4.10;;;3.17;;
34142;SDS011;20419;10.658;106.724;2023-05-07T05:19:53;4.30;;;3.03;;
34142;SDS011;20419;10.658;106.724;2023-05-07T05:22:19;4.22;;;3.17;;
34142;SDS011;20419;10.658;106.724;2023-05-07T05:24:46;4.80;;;3.28;;
34142;SDS011;20419;10.658;106.724;2023-05-07T05:27:13;4.68;;;3.58;;
34142;SDS011;20419;10.658;106.724;2023-05-07T05:29:40;4.05;;;2.90;;
34142;SDS011;20419;10.658;106.724;2023-05-07T05:32:06;5.45;;;3.50;;
34142;SDS011;20419;10.658;106.724;2023-05-07T05:34:33;4.53;;;3.55;;
34142;SDS011;20419;10.658;106.724;2023-05-07T05:37:00;6.05;;;3.30;;
34142;SDS011;20419;10.658;106.724;2023-05-07T05:39:27;5.53;;;3.28;;
34142;SDS011;20419;10.658;106.724;2023-05-07T05:41:54;6.78;;;3.17;;
34142;SDS011;20419;10.658;106.724;2023-05-07T05:44:21;4.63;;;3.47;;
34142;SDS011;20419;10.658;106.724;2023-05-07T05:46:47;4.53;;;3.20;;
34142;SDS011;20419;10.658;106.724;2023-05-07T05:49:20;5.63;;;3.28;;
34142;SDS011;20419;10.658;106.724;2023-05-07T05:51:47;4.90;;;3.47;;
34142;SDS011;20419;10.658;106.724;2023-05-07T05:54:13;4.95;;;3.40;;
34142;SDS011;20419;10.658;106.724;2023-05-07T05:56:41;5.72;;;3.85;;
34142;SDS011;20419;10.658;106.724;2023-05-07T05:59:08;5.03;;;3.77;;
34142;SDS011;20419;10.658;106.724;2023-05-07T06:01:35;5.75;;;3.65;;
34142;SDS011;20419;10.658;106.724;2023-05-07T06:04:02;4.70;;;3.58;;
34142;SDS011;20419;10.658;106.724;2023-05-07T06:06:29;5.22;;;3.80;;
34142;SDS011;20419;10.658;106.724;2023-05-07T06:08:57;4.72;;;3.65;;
34142;SDS011;20419;10.658;106.724;2023-05-07T06:11:23;5.03;;;3.65;;
34142;SDS011;20419;10.658;106.724;2023-05-07T06:13:50;5.18;;;3.70;;
34142;SDS011;20419;10.658;106.724;2023-05-07T06:16:17;4.38;;;3.00;;
34142;SDS011;20419;10.658;106.724;2023-05-07T06:18:44;5.75;;;3.25;;
34142;SDS011;20419;10.658;106.724;2023-05-07T06:21:12;5.55;;;3.95;;
34142;SDS011;20419;10.658;106.724;2023-05-07T06:23:40;6.13;;;4.00;;
34142;SDS011;20419;10.658;106.724;2023-05-07T06:26:07;5.18;;;3.63;;
34142;SDS011;20419;10.658;106.724;2023-05-07T06:28:34;4.30;;;3.10;;
34142;SDS011;20419;10.658;106.724;2023-05-07T06:31:13;4.90;;;3.58;;
34142;SDS011;20419;10.658;106.724;2023-05-07T06:33:41;4.93;;;3.45;;
34142;SDS011;20419;10.658;106.724;2023-05-07T06:36:08;5.90;;;3.90;;
34142;SDS011;20419;10.658;106.724;2023-05-07T06:38:35;4.75;;;3.42;;
34142;SDS011;20419;10.658;106.724;2023-05-07T06:41:02;4.30;;;3.03;;
34142;SDS011;20419;10.658;106.724;2023-05-07T06:43:29;4.65;;;3.85;;
34142;SDS011;20419;10.658;106.724;2023-05-07T06:45:56;5.40;;;3.50;;
34142;SDS011;20419;10.658;106.724;2023-05-07T06:48:23;4.88;;;3.25;;
34142;SDS011;20419;10.658;106.724;2023-05-07T06:50:49;5.32;;;3.47;;
34142;SDS011;20419;10.658;106.724;2023-05-07T06:53:16;4.80;;;3.50;;
34142;SDS011;20419;10.658;106.724;2023-05-07T06:55:43;4.43;;;3.40;;
34142;SDS011;20419;10.658;106.724;2023-05-07T06:58:10;5.45;;;3.20;;
34142;SDS011;20419;10.658;106.724;2023-05-07T07:00:37;4.57;;;3.53;;
34142;SDS011;20419;10.658;106.724;2023-05-07T07:03:04;7.53;;;3.92;;
34142;SDS011;20419;10.658;106.724;2023-05-07T07:05:30;4.68;;;3.50;;
34142;SDS011;20419;10.658;106.724;2023-05-07T07:07:57;5.40;;;3.75;;
34142;SDS011;20419;10.658;106.724;2023-05-07T07:10:24;5.20;;;3.70;;
34142;SDS011;20419;10.658;106.724;2023-05-07T07:12:51;5.55;;;3.78;;
34142;SDS011;20419;10.658;106.724;2023-05-07T07:15:19;5.00;;;3.88;;
34142;SDS011;20419;10.658;106.724;2023-05-07T07:17:50;5.68;;;3.40;;
34142;SDS011;20419;10.658;106.724;2023-05-07T07:20:17;6.68;;;3.60;;
34142;SDS011;20419;10.658;106.724;2023-05-07T07:22:44;5.57;;;3.75;;
34142;SDS011;20419;10.658;106.724;2023-05-07T07:25:10;5.55;;;3.58;;
34142;SDS011;20419;10.658;106.724;2023-05-07T07:27:37;4.47;;;3.30;;
34142;SDS011;20419;10.658;106.724;2023-05-07T07:30:05;5.88;;;3.67;;
34142;SDS011;20419;10.658;106.724;2023-05-07T07:32:32;4.63;;;3.47;;
34142;SDS011;20419;10.658;106.724;2023-05-07T07:34:59;5.43;;;3.53;;
34142;SDS011;20419;10.658;106.724;2023-05-07T07:37:27;5.03;;;3.78;;
34142;SDS011;20419;10.658;106.724;2023-05-07T07:39:54;4.97;;;3.47;;
34142;SDS011;20419;10.658;106.724;2023-05-07T07:42:21;9.27;;;3.42;;
34142;SDS011;20419;10.658;106.724;2023-05-07T07:44:48;5.45;;;3.97;;
34142;SDS011;20419;10.658;106.724;2023-05-07T07:47:15;6.95;;;4.18;;
34142;SDS011;20419;10.658;106.724;2023-05-07T07:49:42;4.65;;;3.53;;
34142;SDS011;20419;10.658;106.724;2023-05-07T07:52:09;4.90;;;3.63;;
34142;SDS011;20419;10.658;106.724;2023-05-07T07:54:35;5.03;;;3.63;;
34142;SDS011;20419;10.658;106.724;2023-05-07T07:57:02;5.60;;;3.80;;
34142;SDS011;20419;10.658;106.724;2023-05-07T07:59:29;4.85;;;3.60;;
34142;SDS011;20419;10.658;106.724;2023-05-07T08:01:56;4.40;;;3.33;;
34142;SDS011;20419;10.658;106.724;2023-05-07T08:04:23;4.80;;;3.80;;
34142;SDS011;20419;10.658;106.724;2023-05-07T08:06:49;5.03;;;3.60;;
34142;SDS011;20419;10.658;106.724;2023-05-07T08:09:16;4.43;;;3.60;;
34142;SDS011;20419;10.658;106.724;2023-05-07T08:11:43;5.13;;;3.72;;
34142;SDS011;20419;10.658;106.724;2023-05-07T08:14:10;5.30;;;3.85;;
34142;SDS011;20419;10.658;106.724;2023-05-07T08:16:37;5.50;;;3.70;;
34142;SDS011;20419;10.658;106.724;2023-05-07T08:19:04;6.07;;;3.80;;
34142;SDS011;20419;10.658;106.724;2023-05-07T08:21:31;4.93;;;3.63;;
34142;SDS011;20419;10.658;106.724;2023-05-07T08:23:58;4.82;;;3.65;;
34142;SDS011;20419;10.658;106.724;2023-05-07T08:26:24;5.07;;;3.92;;
34142;SDS011;20419;10.658;106.724;2023-05-07T08:28:51;5.53;;;3.70;;
34142;SDS011;20419;10.658;106.724;2023-05-07T08:31:18;6.20;;;4.35;;
34142;SDS011;20419;10.658;106.724;2023-05-07T08:33:45;4.95;;;4.13;;
34142;SDS011;20419;10.658;106.724;2023-05-07T08:36:12;4.65;;;3.55;;
34142;SDS011;20419;10.658;106.724;2023-05-07T08:38:38;5.07;;;3.90;;
34142;SDS011;20419;10.658;106.724;2023-05-07T08:41:11;5.03;;;3.85;;
34142;SDS011;20419;10.658;106.724;2023-05-07T08:43:38;5.43;;;3.63;;
34142;SDS011;20419;10.658;106.724;2023-05-07T08:46:08;4.72;;;3.70;;
34142;SDS011;20419;10.658;106.724;2023-05-07T08:48:38;5.15;;;3.53;;
34142;SDS011;20419;10.658;106.724;2023-05-07T08:51:05;5.20;;;3.58;;
34142;SDS011;20419;10.658;106.724;2023-05-07T08:53:32;4.90;;;3.40;;
34142;SDS011;20419;10.658;106.724;2023-05-07T08:55:59;5.57;;;3.90;;
34142;SDS011;20419;10.658;106.724;2023-05-07T08:58:26;4.97;;;3.85;;
34142;SDS011;20419;10.658;106.724;2023-05-07T09:00:53;5.80;;;4.20;;
34142;SDS011;20419;10.658;106.724;2023-05-07T09:03:20;5.53;;;3.75;;
34142;SDS011;20419;10.658;106.724;2023-05-07T09:05:47;5.78;;;3.85;;
34142;SDS011;20419;10.658;106.724;2023-05-07T09:08:14;5.18;;;3.97;;
34142;SDS011;20419;10.658;106.724;2023-05-07T09:10:41;5.30;;;4.15;;
34142;SDS011;20419;10.658;106.724;2023-05-07T09:13:08;5.60;;;4.00;;
34142;SDS011;20419;10.658;106.724;2023-05-07T09:15:38;5.70;;;3.90;;
34142;SDS011;20419;10.658;106.724;2023-05-07T09:18:07;5.05;;;4.15;;
34142;SDS011;20419;10.658;106.724;2023-05-07T09:20:36;6.35;;;5.05;;
34142;SDS011;20419;10.658;106.724;2023-05-07T09:23:02;6.30;;;5.53;;
34142;SDS011;20419;10.658;106.724;2023-05-07T09:25:33;5.97;;;4.65;;
34142;SDS011;20419;10.658;106.724;2023-05-07T09:28:00;6.13;;;5.03;;
34142;SDS011;20419;10.658;106.724;2023-05-07T09:30:45;7.28;;;6.57;;
34142;SDS011;20419;10.658;106.724;2023-05-07T09:33:12;5.53;;;4.80;;
34142;SDS011;20419;10.658;106.724;2023-05-07T09:35:39;6.47;;;5.32;;
34142;SDS011;20419;10.658;106.724;2023-05-07T09:38:05;7.78;;;6.50;;
34142;SDS011;20419;10.658;106.724;2023-05-07T09:40:32;6.75;;;5.88;;
34142;SDS011;20419;10.658;106.724;2023-05-07T09:43:11;6.88;;;6.15;;
34142;SDS011;20419;10.658;106.724;2023-05-07T09:45:39;6.80;;;5.68;;
34142;SDS011;20419;10.658;106.724;2023-05-07T09:48:07;6.40;;;5.70;;
34142;SDS011;20419;10.658;106.724;2023-05-07T09:50:40;7.88;;;6.50;;
34142;SDS011;20419;10.658;106.724;2023-05-07T09:53:10;7.05;;;6.28;;
34142;SDS011;20419;10.658;106.724;2023-05-07T09:55:38;7.50;;;6.80;;
34142;SDS011;20419;10.658;106.724;2023-05-07T09:58:05;8.60;;;7.70;;
34142;SDS011;20419;10.658;106.724;2023-05-07T10:00:33;6.95;;;6.25;;
34142;SDS011;20419;10.658;106.724;2023-05-07T10:03:00;8.70;;;7.47;;
34142;SDS011;20419;10.658;106.724;2023-05-07T10:05:28;7.72;;;6.93;;
34142;SDS011;20419;10.658;106.724;2023-05-07T10:07:55;8.48;;;7.57;;
34142;SDS011;20419;10.658;106.724;2023-05-07T10:10:22;8.60;;;7.70;;
34142;SDS011;20419;10.658;106.724;2023-05-07T10:12:50;8.30;;;7.50;;
34142;SDS011;20419;10.658;106.724;2023-05-07T10:15:17;8.52;;;7.63;;
34142;SDS011;20419;10.658;106.724;2023-05-07T10:17:44;8.70;;;7.90;;
34142;SDS011;20419;10.658;106.724;2023-05-07T10:20:11;8.27;;;7.00;;
34142;SDS011;20419;10.658;106.724;2023-05-07T10:22:41;8.77;;;7.90;;
34142;SDS011;20419;10.658;106.724;2023-05-07T10:25:14;8.60;;;7.70;;
34142;SDS011;20419;10.658;106.724;2023-05-07T10:27:43;9.20;;;8.15;;
34142;SDS011;20419;10.658;106.724;2023-05-07T10:32:56;9.05;;;8.15;;
34142;SDS011;20419;10.658;106.724;2023-05-07T10:35:32;8.38;;;7.57;;
34142;SDS011;20419;10.658;106.724;2023-05-07T10:38:02;9.02;;;8.13;;
34142;SDS011;20419;10.658;106.724;2023-05-07T10:40:30;9.02;;;8.13;;
34142;SDS011;20419;10.658;106.724;2023-05-07T10:42:57;8.70;;;7.90;;
34142;SDS011;20419;10.658;106.724;2023-05-07T10:45:28;8.25;;;7.45;;
34142;SDS011;20419;10.658;106.724;2023-05-07T10:48:09;8.73;;;7.82;;
34142;SDS011;20419;10.658;106.724;2023-05-07T10:50:36;8.85;;;7.90;;
34142;SDS011;20419;10.658;106.724;2023-05-07T11:00:48;8.43;;;7.55;;
34142;SDS011;20419;10.658;106.724;2023-05-07T11:03:15;9.18;;;8.27;;
34142;SDS011;20419;10.658;106.724;2023-05-07T11:05:42;8.23;;;7.43;;
34142;SDS011;20419;10.658;106.724;2023-05-07T11:08:09;8.43;;;7.63;;
34142;SDS011;20419;10.658;106.724;2023-05-07T11:10:52;8.30;;;7.50;;
34142;SDS011;20419;10.658;106.724;2023-05-07T11:14:04;9.20;;;8.23;;
34142;SDS011;20419;10.658;106.724;2023-05-07T11:16:15;10.02;;;8.15;;
34142;SDS011;20419;10.658;106.724;2023-05-07T11:18:53;8.23;;;7.43;;
34142;SDS011;20419;10.658;106.724;2023-05-07T11:21:39;8.52;;;7.63;;
34142;SDS011;20419;10.658;106.724;2023-05-07T11:24:06;8.15;;;7.35;;
34142;SDS011;20419;10.658;106.724;2023-05-07T11:26:47;8.63;;;7.70;;
34142;SDS011;20419;10.658;106.724;2023-05-07T11:29:14;8.45;;;7.55;;
34142;SDS011;20419;10.658;106.724;2023-05-07T11:31:42;9.55;;;8.13;;
34142;SDS011;20419;10.658;106.724;2023-05-07T11:34:08;8.70;;;7.38;;
34142;SDS011;20419;10.658;106.724;2023-05-07T11:36:37;8.05;;;7.25;;
34142;SDS011;20419;10.658;106.724;2023-05-07T11:39:30;7.95;;;6.88;;
34142;SDS011;20419;10.658;106.724;2023-05-07T11:42:01;7.20;;;6.20;;
34142;SDS011;20419;10.658;106.724;2023-05-07T11:44:41;7.82;;;7.03;;
34142;SDS011;20419;10.658;106.724;2023-05-07T11:47:08;8.45;;;7.53;;
34142;SDS011;20419;10.658;106.724;2023-05-07T11:49:35;7.85;;;7.00;;
34142;SDS011;20419;10.658;106.724;2023-05-07T11:52:01;7.82;;;7.03;;
34142;SDS011;20419;10.658;106.724;2023-05-07T11:54:34;8.65;;;6.72;;
34142;SDS011;20419;10.658;106.724;2023-05-07T11:57:02;7.85;;;7.05;;
34142;SDS011;20419;10.658;106.724;2023-05-07T11:59:29;8.38;;;7.45;;
34142;SDS011;20419;10.658;106.724;2023-05-07T12:01:59;9.02;;;6.50;;
34142;SDS011;20419;10.658;106.724;2023-05-07T12:04:25;7.57;;;6.78;;
34142;SDS011;20419;10.658;106.724;2023-05-07T12:06:55;7.43;;;6.68;;
34142;SDS011;20419;10.658;106.724;2023-05-07T12:09:22;7.47;;;6.43;;
34142;SDS011;20419;10.658;106.724;2023-05-07T12:11:49;7.57;;;6.68;;
34142;SDS011;20419;10.658;106.724;2023-05-07T12:14:15;6.97;;;5.88;;
34142;SDS011;20419;10.658;106.724;2023-05-07T12:16:42;8.55;;;5.82;;
34142;SDS011;20419;10.658;106.724;2023-05-07T12:19:10;7.32;;;6.60;;
34142;SDS011;20419;10.658;106.724;2023-05-07T12:21:40;7.00;;;5.90;;
34142;SDS011;20419;10.658;106.724;2023-05-07T12:24:07;7.43;;;5.95;;
34142;SDS011;20419;10.658;106.724;2023-05-07T12:26:37;7.05;;;6.20;;
34142;SDS011;20419;10.658;106.724;2023-05-07T12:29:06;7.53;;;6.68;;
34142;SDS011;20419;10.658;106.724;2023-05-07T12:31:33;6.45;;;5.82;;
34142;SDS011;20419;10.658;106.724;2023-05-07T12:34:00;6.18;;;5.43;;
34142;SDS011;20419;10.658;106.724;2023-05-07T12:36:26;7.15;;;6.20;;
34142;SDS011;20419;10.658;106.724;2023-05-07T12:39:03;6.68;;;6.00;;
34142;SDS011;20419;10.658;106.724;2023-05-07T12:41:34;7.18;;;6.18;;
34142;SDS011;20419;10.658;106.724;2023-05-07T12:44:03;6.70;;;6.00;;
34142;SDS011;20419;10.658;106.724;2023-05-07T12:48:57;6.05;;;5.43;;
34142;SDS011;20419;10.658;106.724;2023-05-07T12:51:25;6.67;;;5.97;;
34142;SDS011;20419;10.658;106.724;2023-05-07T12:53:52;6.40;;;5.75;;
34142;SDS011;20419;10.658;106.724;2023-05-07T12:56:22;6.75;;;5.43;;
34142;SDS011;20419;10.658;106.724;2023-05-07T12:58:49;6.68;;;5.97;;
34142;SDS011;20419;10.658;106.724;2023-05-07T13:01:16;7.28;;;6.30;;
34142;SDS011;20419;10.658;106.724;2023-05-07T13:03:47;6.68;;;5.85;;
34142;SDS011;20419;10.658;106.724;2023-05-07T13:06:15;6.32;;;5.35;;
34142;SDS011;20419;10.658;106.724;2023-05-07T13:08:42;6.30;;;5.40;;
34142;SDS011;20419;10.658;106.724;2023-05-07T13:11:09;5.63;;;4.85;;
34142;SDS011;20419;10.658;106.724;2023-05-07T13:13:37;6.55;;;5.85;;
34142;SDS011;20419;10.658;106.724;2023-05-07T13:16:04;7.13;;;6.15;;
34142;SDS011;20419;10.658;106.724;2023-05-07T13:18:32;5.38;;;4.88;;
34142;SDS011;20419;10.658;106.724;2023-05-07T13:20:59;6.05;;;5.45;;
34142;SDS011;20419;10.658;106.724;2023-05-07T13:23:26;6.03;;;5.43;;
34142;SDS011;20419;10.658;106.724;2023-05-07T13:25:53;5.63;;;4.90;;
34142;SDS011;20419;10.658;106.724;2023-05-07T13:28:21;5.30;;;4.80;;
34142;SDS011;20419;10.658;106.724;2023-05-07T13:30:48;7.18;;;5.75;;
34142;SDS011;20419;10.658;106.724;2023-05-07T13:33:17;5.75;;;5.07;;
34142;SDS011;20419;10.658;106.724;2023-05-07T13:35:44;7.07;;;5.10;;
34142;SDS011;20419;10.658;106.724;2023-05-07T13:38:11;6.20;;;5.13;;
34142;SDS011;20419;10.658;106.724;2023-05-07T13:40:37;6.72;;;5.20;;
34142;SDS011;20419;10.658;106.724;2023-05-07T13:43:05;6.20;;;4.82;;
34142;SDS011;20419;10.658;106.724;2023-05-07T13:45:32;6.85;;;5.43;;
34142;SDS011;20419;10.658;106.724;2023-05-07T13:47:59;6.07;;;5.10;;
34142;SDS011;20419;10.658;106.724;2023-05-07T13:50:25;7.43;;;5.00;;
34142;SDS011;20419;10.658;106.724;2023-05-07T13:52:52;6.65;;;4.90;;
34142;SDS011;20419;10.658;106.724;2023-05-07T13:55:20;5.95;;;5.15;;
34142;SDS011;20419;10.658;106.724;2023-05-07T13:57:53;5.38;;;4.88;;
34142;SDS011;20419;10.658;106.724;2023-05-07T14:00:21;5.95;;;5.18;;
34142;SDS011;20419;10.658;106.724;2023-05-07T14:02:48;5.45;;;4.78;;
34142;SDS011;20419;10.658;106.724;2023-05-07T14:05:14;21.27;;;5.95;;
34142;SDS011;20419;10.658;106.724;2023-05-07T14:07:41;6.13;;;4.68;;
34142;SDS011;20419;10.658;106.724;2023-05-07T14:10:08;6.22;;;4.93;;
34142;SDS011;20419;10.658;106.724;2023-05-07T14:12:36;6.37;;;5.23;;
34142;SDS011;20419;10.658;106.724;2023-05-07T14:15:03;6.43;;;4.82;;
34142;SDS011;20419;10.658;106.724;2023-05-07T14:17:33;8.07;;;4.70;;
34142;SDS011;20419;10.658;106.724;2023-05-07T14:20:00;6.35;;;5.07;;
34142;SDS011;20419;10.658;106.724;2023-05-07T14:22:26;5.40;;;4.60;;
34142;SDS011;20419;10.658;106.724;2023-05-07T14:24:53;6.10;;;4.90;;
34142;SDS011;20419;10.658;106.724;2023-05-07T14:27:20;5.53;;;4.68;;
34142;SDS011;20419;10.658;106.724;2023-05-07T14:29:47;6.70;;;5.18;;
34142;SDS011;20419;10.658;106.724;2023-05-07T14:32:19;6.30;;;5.05;;
34142;SDS011;20419;10.658;106.724;2023-05-07T14:34:46;5.85;;;4.65;;
34142;SDS011;20419;10.658;106.724;2023-05-07T14:37:13;5.95;;;4.30;;